createdAt,value
2018-09-05T00:03:02.770Z,91.70
2018-09-05T00:08:32.027Z,91.60
2018-09-05T00:14:01.364Z,91.70
2018-09-05T00:19:30.767Z,91.70
2018-09-05T00:25:00.169Z,91.60
2018-09-05T00:30:29.587Z,91.60
2018-09-05T00:35:58.916Z,91.70
2018-09-05T00:41:28.253Z,91.60
2018-09-05T00:46:57.588Z,91.60
2018-09-05T00:52:27.601Z,91.70
2018-09-05T00:57:57.014Z,91.70
2018-09-05T01:03:26.402Z,91.70
2018-09-05T01:08:55.976Z,91.70
2018-09-05T01:14:25.290Z,91.70
2018-09-05T01:19:54.612Z,91.70
2018-09-05T01:25:23.932Z,91.70
2018-09-05T01:30:53.358Z,91.70
2018-09-05T01:36:22.591Z,91.60
2018-09-05T01:41:51.935Z,91.70
2018-09-05T01:47:21.351Z,91.60
2018-09-05T01:52:50.544Z,91.60
2018-09-05T01:58:20.624Z,91.60
2018-09-05T02:03:50.741Z,91.50
2018-09-05T02:09:20.021Z,91.60
2018-09-05T02:14:49.234Z,91.50
2018-09-05T02:20:18.451Z,91.50
2018-09-05T02:25:47.619Z,91.50
2018-09-05T02:31:16.843Z,91.50
2018-09-05T02:36:46.115Z,91.60
2018-09-05T02:42:20.896Z,91.60
2018-09-05T02:47:50.133Z,91.60
2018-09-05T02:53:19.380Z,91.50
2018-09-05T02:58:48.603Z,91.50
2018-09-05T03:04:17.979Z,91.60
2018-09-05T03:09:47.221Z,91.60
2018-09-05T03:15:16.482Z,91.60
2018-09-05T03:20:46.676Z,91.60
2018-09-05T03:26:15.891Z,91.60
2018-09-05T03:31:45.258Z,91.60
2018-09-05T03:37:14.544Z,91.50
2018-09-05T03:42:43.728Z,91.70
2018-09-05T03:48:15.053Z,91.50
2018-09-05T03:53:44.289Z,91.60
2018-09-05T03:59:13.595Z,91.60
2018-09-05T04:04:42.819Z,91.60
2018-09-05T04:10:12.052Z,91.60
2018-09-05T04:15:41.723Z,91.60
2018-09-05T04:21:10.912Z,91.50
2018-09-05T04:26:40.206Z,91.60
2018-09-05T04:32:09.446Z,91.50
2018-09-05T04:37:38.815Z,91.50
2018-09-05T04:43:08.175Z,91.50
2018-09-05T04:48:37.413Z,91.50
2018-09-05T04:54:06.604Z,91.50
2018-09-05T04:59:35.887Z,91.40
2018-09-05T05:05:06.328Z,91.50
2018-09-05T05:10:35.539Z,91.40
2018-09-05T05:16:04.795Z,91.40
2018-09-05T05:21:34.114Z,91.40
2018-09-05T05:27:03.460Z,91.40
2018-09-05T05:32:32.783Z,91.30
2018-09-05T05:38:02.156Z,91.30
2018-09-05T05:43:31.475Z,91.30
2018-09-05T05:49:00.871Z,91.20
2018-09-05T05:54:30.364Z,91.20
2018-09-05T05:59:59.697Z,91.20
2018-09-05T06:05:30.175Z,91.20
2018-09-05T06:10:59.573Z,91.10
2018-09-05T06:16:28.934Z,91.20
2018-09-05T06:21:58.292Z,91.00
2018-09-05T06:27:27.656Z,91.00
2018-09-05T06:32:56.983Z,90.70
2018-09-05T06:38:26.347Z,90.70
2018-09-05T06:43:55.683Z,90.60
2018-09-05T06:49:24.964Z,90.50
2018-09-05T06:54:54.378Z,90.20
2018-09-05T07:00:23.869Z,90.10
2018-09-05T07:05:53.184Z,89.40
2018-09-05T07:11:22.396Z,89.00
2018-09-05T07:16:56.365Z,88.50
2018-09-05T07:22:26.098Z,88.00
2018-09-05T07:27:55.459Z,87.10
2018-09-05T07:33:24.792Z,86.20
2018-09-05T07:38:54.244Z,85.90
2018-09-05T07:44:23.507Z,84.80
2018-09-05T07:49:52.912Z,85.00
2018-09-05T07:55:23.308Z,84.80
2018-09-05T08:00:52.519Z,83.70
2018-09-05T08:06:21.942Z,82.80
2018-09-05T08:11:51.225Z,83.10
2018-09-05T08:17:20.512Z,82.80
2018-09-05T08:22:49.787Z,82.30
2018-09-05T08:28:19.119Z,81.30
2018-09-05T08:33:48.538Z,80.90
2018-09-05T08:39:17.843Z,80.60
2018-09-05T08:44:47.844Z,80.10
2018-09-05T08:50:16.847Z,79.70
2018-09-05T08:55:47.252Z,79.00
2018-09-05T09:01:16.731Z,78.90
2018-09-05T09:06:45.991Z,78.90
2018-09-05T09:12:15.498Z,77.10
2018-09-05T09:17:45.156Z,77.30
2018-09-05T09:23:14.434Z,76.40
2018-09-05T09:28:43.748Z,75.70
2018-09-05T09:34:13.053Z,75.60
2018-09-05T09:39:42.380Z,75.40
2018-09-05T09:45:12.080Z,75.40
2018-09-05T09:50:41.908Z,74.30
2018-09-05T09:56:13.444Z,74.70
2018-09-05T10:01:47.977Z,74.10
2018-09-05T10:07:22.568Z,73.80
2018-09-05T10:13:00.883Z,73.70
2018-09-05T10:18:32.410Z,72.10
2018-09-05T10:24:01.925Z,71.90
2018-09-05T10:29:31.768Z,71.60
2018-09-05T10:35:01.302Z,71.30
2018-09-05T10:40:31.636Z,70.90
2018-09-05T10:46:02.216Z,70.20
2018-09-05T10:51:36.975Z,69.00
2018-09-05T10:57:06.397Z,70.00
2018-09-05T11:02:35.651Z,70.10
2018-09-05T11:08:05.007Z,69.00
2018-09-05T11:13:35.542Z,69.00
2018-09-05T11:19:13.110Z,69.10
2018-09-05T11:24:43.415Z,68.50
2018-09-05T11:30:12.636Z,66.50
2018-09-05T11:35:44.097Z,66.80
2018-09-05T11:41:13.337Z,65.20
2018-09-05T11:46:42.725Z,62.80
2018-09-05T11:52:14.262Z,63.40
2018-09-05T11:57:44.796Z,63.00
2018-09-05T12:03:14.000Z,65.00
2018-09-05T12:08:43.405Z,63.40
2018-09-05T12:14:12.645Z,63.60
2018-09-05T12:19:41.898Z,63.50
2018-09-05T12:25:11.487Z,63.60
2018-09-05T12:30:40.842Z,63.20
2018-09-05T12:36:10.218Z,63.00
2018-09-05T12:41:39.607Z,63.60
2018-09-05T12:47:14.387Z,63.40
2018-09-05T12:52:43.681Z,63.20
2018-09-05T12:58:12.903Z,63.80
2018-09-05T13:03:42.139Z,63.10
2018-09-05T13:09:13.165Z,61.90
2018-09-05T13:14:43.169Z,62.10
2018-09-05T13:20:13.852Z,62.20
2018-09-05T13:25:44.255Z,62.50
2018-09-05T13:31:13.665Z,60.70
2018-09-05T13:36:43.589Z,60.20
2018-09-05T13:42:14.068Z,60.00
2018-09-05T13:47:43.527Z,58.70
2018-09-05T13:53:13.772Z,56.70
2018-09-05T13:58:43.164Z,56.20
2018-09-05T14:04:12.467Z,52.60
2018-09-05T14:09:41.764Z,49.30
2018-09-05T14:15:11.199Z,47.10
2018-09-05T14:20:40.558Z,44.70
2018-09-05T14:26:12.190Z,42.90
2018-09-05T14:31:41.633Z,45.30
2018-09-05T14:37:12.033Z,44.90
2018-09-05T14:42:41.500Z,41.40
2018-09-05T14:48:11.003Z,39.70
2018-09-05T14:53:40.368Z,38.90
2018-09-05T14:59:10.705Z,39.10
2018-09-05T15:04:41.771Z,38.10
2018-09-05T15:10:11.301Z,42.70
2018-09-05T15:15:41.604Z,46.50
2018-09-05T15:21:12.974Z,50.20
2018-09-05T15:26:42.299Z,52.10
2018-09-05T15:32:11.587Z,53.50
2018-09-05T15:37:40.856Z,53.20
2018-09-05T15:43:10.296Z,54.90
2018-09-05T15:48:39.543Z,55.10
2018-09-05T15:54:08.836Z,56.80
2018-09-05T15:59:38.437Z,58.00
2018-09-05T16:05:07.949Z,58.30
2018-09-05T16:10:37.805Z,58.50
2018-09-05T16:16:09.107Z,59.60
2018-09-05T16:21:38.529Z,60.10
2018-09-05T16:27:08.154Z,61.40
2018-09-05T16:32:37.903Z,61.90
2018-09-05T16:38:07.505Z,61.90
2018-09-05T16:43:36.928Z,62.10
2018-09-05T16:49:06.421Z,62.70
2018-09-05T16:54:35.657Z,63.40
2018-09-05T17:00:05.263Z,63.90
2018-09-05T17:05:35.532Z,64.00
2018-09-05T17:11:04.942Z,64.50
2018-09-05T17:16:35.448Z,64.90
2018-09-05T17:22:05.180Z,65.70
2018-09-05T17:27:34.507Z,66.30
2018-09-05T17:33:04.241Z,66.80
2018-09-05T17:38:37.372Z,67.70
2018-09-05T17:44:07.659Z,67.70
2018-09-05T17:49:37.180Z,68.70
2018-09-05T17:55:07.096Z,68.80
2018-09-05T18:00:36.463Z,69.10
2018-09-05T18:06:09.699Z,69.70
2018-09-05T18:11:53.416Z,70.40
2018-09-05T18:17:23.686Z,70.90
2018-09-05T18:22:53.127Z,71.30
2018-09-05T18:28:28.132Z,71.60
2018-09-05T18:33:57.632Z,72.10
2018-09-05T18:39:27.510Z,72.50
2018-09-05T18:44:58.252Z,72.80
2018-09-05T18:50:27.667Z,73.20
2018-09-05T18:55:57.151Z,73.50
2018-09-05T19:01:26.680Z,73.90
2018-09-05T19:06:57.082Z,74.30
2018-09-05T19:12:26.745Z,74.90
2018-09-05T19:17:56.391Z,75.30
2018-09-05T19:23:25.876Z,75.80
2018-09-05T19:28:55.415Z,76.10
2018-09-05T19:34:24.829Z,76.50
2018-09-05T19:39:54.903Z,77.10
2018-09-05T19:45:24.252Z,77.50
2018-09-05T19:50:57.393Z,78.00
2018-09-05T19:56:26.918Z,78.50
2018-09-05T20:01:56.316Z,79.20
2018-09-05T20:07:25.784Z,79.60
2018-09-05T20:12:58.811Z,80.00
2018-09-05T20:18:28.481Z,80.60
2018-09-05T20:23:57.976Z,81.40
2018-09-05T20:29:27.493Z,81.20
2018-09-05T20:34:56.927Z,81.30
2018-09-05T20:40:26.407Z,81.40
2018-09-05T20:45:58.792Z,81.70
2018-09-05T20:51:28.790Z,81.70
2018-09-05T20:56:58.556Z,81.90
2018-09-05T21:02:28.068Z,81.90
2018-09-05T21:08:00.024Z,82.10
2018-09-05T21:13:30.544Z,82.30
2018-09-05T21:18:59.855Z,82.50
2018-09-05T21:24:29.178Z,82.70
2018-09-05T21:29:59.254Z,83.00
2018-09-05T21:35:29.802Z,83.20
2018-09-05T21:40:59.312Z,83.30
2018-09-05T21:46:28.796Z,83.60
2018-09-05T21:51:58.113Z,83.70
2018-09-05T21:57:27.474Z,83.80
2018-09-05T22:02:57.635Z,84.00
2018-09-05T22:08:27.028Z,84.10
2018-09-05T22:13:56.928Z,84.30
2018-09-05T22:19:26.408Z,84.50
2018-09-05T22:24:55.730Z,84.60
2018-09-05T22:30:28.801Z,84.90
2018-09-05T22:35:58.169Z,85.10
2018-09-05T22:41:27.565Z,85.10
2018-09-05T22:47:13.705Z,85.20
2018-09-05T22:55:40.754Z,85.50
2018-09-05T23:01:48.484Z,85.60
2018-09-05T23:09:47.993Z,85.40
2018-09-05T23:15:34.108Z,85.40
2018-09-05T23:21:21.622Z,85.30
2018-09-05T23:26:50.887Z,85.50
2018-09-05T23:32:20.128Z,85.70
2018-09-05T23:37:51.156Z,85.70
2018-09-05T23:43:20.608Z,85.90
2018-09-05T23:48:49.884Z,85.90
2018-09-05T23:54:19.249Z,85.90
2018-09-05T23:59:52.710Z,85.90
